sensor_id;sensor_type;location;lat;lon;timestamp;temperature;humidity
43673;DHT22;41723;49.326;8.430;2023-05-13T00:02:18;13.50;99.90
43673;DHT22;41723;49.326;8.430;2023-05-13T00:04:44;13.50;99.90
43673;DHT22;41723;49.326;8.430;2023-05-13T00:07:09;13.50;99.90
43673;DHT22;41723;49.326;8.430;2023-05-13T00:09:35;13.40;99.90
43673;DHT22;41723;49.326;8.430;2023-05-13T00:12:01;13.40;99.90
43673;DHT22;41723;49.326;8.430;2023-05-13T00:14:27;13.40;99.90
43673;DHT22;41723;49.326;8.430;2023-05-13T00:16:53;13.40;99.90
43673;DHT22;41723;49.326;8.430;2023-05-13T00:19:19;13.40;99.90
43673;DHT22;41723;49.326;8.430;2023-05-13T00:21:45;13.40;99.90
43673;DHT22;41723;49.326;8.430;2023-05-13T00:24:10;13.30;99.90
43673;DHT22;41723;49.326;8.430;2023-05-13T00:26:36;13.30;99.90
43673;DHT22;41723;49.326;8.430;2023-05-13T00:29:02;13.30;99.90
43673;DHT22;41723;49.326;8.430;2023-05-13T00:31:28;13.20;99.90
43673;DHT22;41723;49.326;8.430;2023-05-13T00:33:53;13.30;99.90
43673;DHT22;41723;49.326;8.430;2023-05-13T00:36:19;13.20;99.90
43673;DHT22;41723;49.326;8.430;2023-05-13T00:38:44;13.20;99.90
43673;DHT22;41723;49.326;8.430;2023-05-13T00:41:10;13.20;99.90
43673;DHT22;41723;49.326;8.430;2023-05-13T00:43:36;13.20;99.90
43673;DHT22;41723;49.326;8.430;2023-05-13T00:46:01;13.20;99.90
43673;DHT22;41723;49.326;8.430;2023-05-13T00:48:27;13.20;99.90
43673;DHT22;41723;49.326;8.430;2023-05-13T00:50:53;13.10;99.90
43673;DHT22;41723;49.326;8.430;2023-05-13T00:53:19;13.10;99.90
43673;DHT22;41723;49.326;8.430;2023-05-13T00:55:44;13.10;99.90
43673;DHT22;41723;49.326;8.430;2023-05-13T00:58:10;13.10;99.90
43673;DHT22;41723;49.326;8.430;2023-05-13T01:00:38;13.10;99.90
43673;DHT22;41723;49.326;8.430;2023-05-13T01:03:07;13.10;99.90
43673;DHT22;41723;49.326;8.430;2023-05-13T01:11:39;13.20;99.90
43673;DHT22;41723;49.326;8.430;2023-05-13T01:14:01;13.20;99.90
43673;DHT22;41723;49.326;8.430;2023-05-13T01:16:34;13.10;99.90
43673;DHT22;41723;49.326;8.430;2023-05-13T01:19:04;13.10;99.90
43673;DHT22;41723;49.326;8.430;2023-05-13T01:21:34;13.00;99.90
43673;DHT22;41723;49.326;8.430;2023-05-13T01:24:00;13.00;99.90
43673;DHT22;41723;49.326;8.430;2023-05-13T01:26:26;12.90;99.90
43673;DHT22;41723;49.326;8.430;2023-05-13T01:28:52;12.90;99.90
43673;DHT22;41723;49.326;8.430;2023-05-13T01:31:18;12.90;99.90
43673;DHT22;41723;49.326;8.430;2023-05-13T01:33:45;12.80;99.90
43673;DHT22;41723;49.326;8.430;2023-05-13T01:36:11;12.80;99.90
43673;DHT22;41723;49.326;8.430;2023-05-13T01:38:39;12.80;99.90
43673;DHT22;41723;49.326;8.430;2023-05-13T01:41:05;12.80;99.90
43673;DHT22;41723;49.326;8.430;2023-05-13T01:43:30;12.80;99.90
43673;DHT22;41723;49.326;8.430;2023-05-13T01:45:56;12.80;99.90
43673;DHT22;41723;49.326;8.430;2023-05-13T01:48:25;12.90;99.90
43673;DHT22;41723;49.326;8.430;2023-05-13T01:50:51;12.80;99.90
43673;DHT22;41723;49.326;8.430;2023-05-13T01:53:17;12.70;99.90
43673;DHT22;41723;49.326;8.430;2023-05-13T01:55:44;12.70;99.90
43673;DHT22;41723;49.326;8.430;2023-05-13T01:58:09;12.70;99.90
43673;DHT22;41723;49.326;8.430;2023-05-13T02:00:35;12.70;99.90
43673;DHT22;41723;49.326;8.430;2023-05-13T02:03:01;12.70;99.90
43673;DHT22;41723;49.326;8.430;2023-05-13T02:05:26;12.70;99.90
43673;DHT22;41723;49.326;8.430;2023-05-13T02:07:53;12.80;99.90
43673;DHT22;41723;49.326;8.430;2023-05-13T02:10:19;12.70;99.90
43673;DHT22;41723;49.326;8.430;2023-05-13T02:12:45;12.70;99.90
43673;DHT22;41723;49.326;8.430;2023-05-13T02:15:10;12.60;99.90
43673;DHT22;41723;49.326;8.430;2023-05-13T02:17:36;12.70;99.90
43673;DHT22;41723;49.326;8.430;2023-05-13T02:20:02;12.60;99.90
43673;DHT22;41723;49.326;8.430;2023-05-13T02:22:28;12.70;99.90
43673;DHT22;41723;49.326;8.430;2023-05-13T02:24:53;12.70;99.90
43673;DHT22;41723;49.326;8.430;2023-05-13T02:27:19;12.70;99.90
43673;DHT22;41723;49.326;8.430;2023-05-13T02:29:46;12.70;99.90
43673;DHT22;41723;49.326;8.430;2023-05-13T02:32:11;12.60;99.90
43673;DHT22;41723;49.326;8.430;2023-05-13T02:34:37;12.50;99.90
43673;DHT22;41723;49.326;8.430;2023-05-13T02:37:03;12.50;99.90
43673;DHT22;41723;49.326;8.430;2023-05-13T02:39:29;12.50;99.90
43673;DHT22;41723;49.326;8.430;2023-05-13T02:41:56;12.40;99.90
43673;DHT22;41723;49.326;8.430;2023-05-13T02:44:25;12.40;99.90
43673;DHT22;41723;49.326;8.430;2023-05-13T02:46:50;12.40;99.90
43673;DHT22;41723;49.326;8.430;2023-05-13T02:49:16;12.40;99.90
43673;DHT22;41723;49.326;8.430;2023-05-13T02:51:42;12.50;99.90
43673;DHT22;41723;49.326;8.430;2023-05-13T02:54:07;12.40;99.90
43673;DHT22;41723;49.326;8.430;2023-05-13T02:56:33;12.40;99.90
43673;DHT22;41723;49.326;8.430;2023-05-13T02:58:58;12.30;99.90
43673;DHT22;41723;49.326;8.430;2023-05-13T03:01:24;12.20;99.90
43673;DHT22;41723;49.326;8.430;2023-05-13T03:03:51;12.10;99.90
43673;DHT22;41723;49.326;8.430;2023-05-13T03:06:16;12.10;99.90
43673;DHT22;41723;49.326;8.430;2023-05-13T03:08:42;12.20;99.90
43673;DHT22;41723;49.326;8.430;2023-05-13T03:11:08;12.10;99.90
43673;DHT22;41723;49.326;8.430;2023-05-13T03:13:33;12.10;99.90
43673;DHT22;41723;49.326;8.430;2023-05-13T03:15:59;12.00;99.90
43673;DHT22;41723;49.326;8.430;2023-05-13T03:18:24;12.00;99.90
43673;DHT22;41723;49.326;8.430;2023-05-13T03:20:50;11.90;99.90
43673;DHT22;41723;49.326;8.430;2023-05-13T03:23:17;11.90;99.90
43673;DHT22;41723;49.326;8.430;2023-05-13T03:25:45;11.90;99.90
43673;DHT22;41723;49.326;8.430;2023-05-13T03:28:10;11.90;99.90
43673;DHT22;41723;49.326;8.430;2023-05-13T03:30:40;11.90;99.90
43673;DHT22;41723;49.326;8.430;2023-05-13T03:33:12;11.90;99.90
43673;DHT22;41723;49.326;8.430;2023-05-13T03:35:38;11.90;99.90
43673;DHT22;41723;49.326;8.430;2023-05-13T03:38:04;11.90;99.90
43673;DHT22;41723;49.326;8.430;2023-05-13T03:40:33;11.80;99.90
43673;DHT22;41723;49.326;8.430;2023-05-13T03:42:58;11.80;99.90
43673;DHT22;41723;49.326;8.430;2023-05-13T03:45:24;11.90;99.90
43673;DHT22;41723;49.326;8.430;2023-05-13T03:47:53;11.90;99.90
43673;DHT22;41723;49.326;8.430;2023-05-13T03:50:22;12.10;99.90
43673;DHT22;41723;49.326;8.430;2023-05-13T03:52:47;12.10;99.90
43673;DHT22;41723;49.326;8.430;2023-05-13T03:55:14;12.10;99.90
43673;DHT22;41723;49.326;8.430;2023-05-13T03:57:41;12.00;99.90
43673;DHT22;41723;49.326;8.430;2023-05-13T04:00:08;11.90;99.90
43673;DHT22;41723;49.326;8.430;2023-05-13T04:02:40;11.80;99.90
43673;DHT22;41723;49.326;8.430;2023-05-13T04:05:05;11.70;99.90
43673;DHT22;41723;49.326;8.430;2023-05-13T04:07:31;11.70;99.90
43673;DHT22;41723;49.326;8.430;2023-05-13T04:09:57;11.60;99.90
43673;DHT22;41723;49.326;8.430;2023-05-13T04:12:23;11.60;99.90
43673;DHT22;41723;49.326;8.430;2023-05-13T04:14:48;11.60;99.90
43673;DHT22;41723;49.326;8.430;2023-05-13T04:17:14;11.50;99.90
43673;DHT22;41723;49.326;8.430;2023-05-13T04:19:39;11.60;99.90
43673;DHT22;41723;49.326;8.430;2023-05-13T04:22:05;11.50;99.90
43673;DHT22;41723;49.326;8.430;2023-05-13T04:24:30;11.40;99.90
43673;DHT22;41723;49.326;8.430;2023-05-13T04:26:56;11.40;99.90
43673;DHT22;41723;49.326;8.430;2023-05-13T04:29:22;11.60;99.90
43673;DHT22;41723;49.326;8.430;2023-05-13T04:31:48;11.60;99.90
43673;DHT22;41723;49.326;8.430;2023-05-13T04:34:14;11.70;99.90
43673;DHT22;41723;49.326;8.430;2023-05-13T04:36:39;11.70;99.90
43673;DHT22;41723;49.326;8.430;2023-05-13T04:39:06;11.70;99.90
43673;DHT22;41723;49.326;8.430;2023-05-13T04:41:31;11.60;99.90
43673;DHT22;41723;49.326;8.430;2023-05-13T04:43:58;11.70;99.90
43673;DHT22;41723;49.326;8.430;2023-05-13T04:46:24;11.70;99.90
43673;DHT22;41723;49.326;8.430;2023-05-13T04:48:50;11.60;99.90
43673;DHT22;41723;49.326;8.430;2023-05-13T04:51:17;11.60;99.90
43673;DHT22;41723;49.326;8.430;2023-05-13T04:53:43;11.70;99.90
43673;DHT22;41723;49.326;8.430;2023-05-13T04:56:09;11.70;99.90
43673;DHT22;41723;49.326;8.430;2023-05-13T04:58:35;11.60;99.90
43673;DHT22;41723;49.326;8.430;2023-05-13T05:01:01;11.70;99.90
43673;DHT22;41723;49.326;8.430;2023-05-13T05:03:27;11.70;99.90
43673;DHT22;41723;49.326;8.430;2023-05-13T05:05:52;11.80;99.90
43673;DHT22;41723;49.326;8.430;2023-05-13T05:08:19;11.90;99.90
43673;DHT22;41723;49.326;8.430;2023-05-13T05:10:46;12.00;99.90
43673;DHT22;41723;49.326;8.430;2023-05-13T05:13:13;12.00;99.90
43673;DHT22;41723;49.326;8.430;2023-05-13T05:15:39;11.90;99.90
43673;DHT22;41723;49.326;8.430;2023-05-13T05:18:06;11.90;99.90
43673;DHT22;41723;49.326;8.430;2023-05-13T05:20:35;11.90;99.90
43673;DHT22;41723;49.326;8.430;2023-05-13T05:23:02;11.90;99.90
43673;DHT22;41723;49.326;8.430;2023-05-13T05:25:28;12.00;99.90
43673;DHT22;41723;49.326;8.430;2023-05-13T05:27:54;12.00;99.90
43673;DHT22;41723;49.326;8.430;2023-05-13T05:30:21;12.00;99.90
43673;DHT22;41723;49.326;8.430;2023-05-13T05:32:54;12.00;99.90
43673;DHT22;41723;49.326;8.430;2023-05-13T05:35:20;12.00;99.90
43673;DHT22;41723;49.326;8.430;2023-05-13T05:37:46;12.00;99.90
43673;DHT22;41723;49.326;8.430;2023-05-13T05:40:12;12.00;99.90
43673;DHT22;41723;49.326;8.430;2023-05-13T05:42:38;12.00;99.90
43673;DHT22;41723;49.326;8.430;2023-05-13T05:45:04;12.20;99.90
43673;DHT22;41723;49.326;8.430;2023-05-13T05:47:30;12.30;99.90
43673;DHT22;41723;49.326;8.430;2023-05-13T05:49:55;12.40;99.90
43673;DHT22;41723;49.326;8.430;2023-05-13T05:52:21;12.50;99.90
43673;DHT22;41723;49.326;8.430;2023-05-13T05:54:47;12.60;99.90
43673;DHT22;41723;49.326;8.430;2023-05-13T05:57:13;12.60;99.90
43673;DHT22;41723;49.326;8.430;2023-05-13T05:59:38;12.70;99.90
43673;DHT22;41723;49.326;8.430;2023-05-13T06:02:04;12.80;99.90
43673;DHT22;41723;49.326;8.430;2023-05-13T06:04:30;12.80;99.90
43673;DHT22;41723;49.326;8.430;2023-05-13T06:06:56;12.90;99.90
43673;DHT22;41723;49.326;8.430;2023-05-13T06:09:21;12.90;99.90
43673;DHT22;41723;49.326;8.430;2023-05-13T06:11:47;13.10;99.90
43673;DHT22;41723;49.326;8.430;2023-05-13T06:14:13;13.10;99.90
43673;DHT22;41723;49.326;8.430;2023-05-13T06:16:39;13.10;99.90
43673;DHT22;41723;49.326;8.430;2023-05-13T06:19:04;13.10;99.90
43673;DHT22;41723;49.326;8.430;2023-05-13T06:21:30;13.30;99.90
43673;DHT22;41723;49.326;8.430;2023-05-13T06:23:56;13.40;99.90
43673;DHT22;41723;49.326;8.430;2023-05-13T06:26:21;13.50;99.90
43673;DHT22;41723;49.326;8.430;2023-05-13T06:28:47;13.50;99.90
43673;DHT22;41723;49.326;8.430;2023-05-13T06:31:13;13.60;99.90
43673;DHT22;41723;49.326;8.430;2023-05-13T06:33:39;13.70;99.90
43673;DHT22;41723;49.326;8.430;2023-05-13T06:36:05;13.80;99.90
43673;DHT22;41723;49.326;8.430;2023-05-13T06:38:31;13.90;99.90
43673;DHT22;41723;49.326;8.430;2023-05-13T06:40:58;14.00;99.90
43673;DHT22;41723;49.326;8.430;2023-05-13T06:43:34;14.10;99.90
43673;DHT22;41723;49.326;8.430;2023-05-13T06:46:11;14.10;99.90
43673;DHT22;41723;49.326;8.430;2023-05-13T06:48:37;14.10;99.90
43673;DHT22;41723;49.326;8.430;2023-05-13T06:51:03;14.20;99.90
43673;DHT22;41723;49.326;8.430;2023-05-13T06:53:29;14.30;99.90
43673;DHT22;41723;49.326;8.430;2023-05-13T06:55:56;14.40;99.90
43673;DHT22;41723;49.326;8.430;2023-05-13T06:58:22;14.40;99.90
43673;DHT22;41723;49.326;8.430;2023-05-13T07:00:47;14.50;99.90
43673;DHT22;41723;49.326;8.430;2023-05-13T07:03:13;14.60;99.90
43673;DHT22;41723;49.326;8.430;2023-05-13T07:05:38;14.60;99.90
43673;DHT22;41723;49.326;8.430;2023-05-13T07:08:04;14.70;99.90
43673;DHT22;41723;49.326;8.430;2023-05-13T07:10:33;14.70;99.90
43673;DHT22;41723;49.326;8.430;2023-05-13T07:12:59;14.70;99.90
43673;DHT22;41723;49.326;8.430;2023-05-13T07:15:25;14.80;99.90
43673;DHT22;41723;49.326;8.430;2023-05-13T07:17:51;14.80;99.90
43673;DHT22;41723;49.326;8.430;2023-05-13T07:20:16;14.70;99.90
43673;DHT22;41723;49.326;8.430;2023-05-13T07:22:49;14.90;99.90
43673;DHT22;41723;49.326;8.430;2023-05-13T07:25:15;14.90;99.90
43673;DHT22;41723;49.326;8.430;2023-05-13T07:27:41;15.00;99.90
43673;DHT22;41723;49.326;8.430;2023-05-13T07:30:06;15.00;99.90
43673;DHT22;41723;49.326;8.430;2023-05-13T07:32:32;15.00;99.90
43673;DHT22;41723;49.326;8.430;2023-05-13T07:35:00;15.10;99.90
43673;DHT22;41723;49.326;8.430;2023-05-13T07:37:25;15.20;99.90
43673;DHT22;41723;49.326;8.430;2023-05-13T07:39:51;15.10;99.90
43673;DHT22;41723;49.326;8.430;2023-05-13T07:42:18;15.20;99.90
43673;DHT22;41723;49.326;8.430;2023-05-13T07:44:43;15.20;99.90
43673;DHT22;41723;49.326;8.430;2023-05-13T07:47:09;15.30;99.90
43673;DHT22;41723;49.326;8.430;2023-05-13T07:49:35;15.40;99.90
43673;DHT22;41723;49.326;8.430;2023-05-13T07:52:00;15.40;99.90
43673;DHT22;41723;49.326;8.430;2023-05-13T07:54:27;15.40;99.90
43673;DHT22;41723;49.326;8.430;2023-05-13T07:56:52;15.40;99.90
43673;DHT22;41723;49.326;8.430;2023-05-13T07:59:18;15.40;99.90
43673;DHT22;41723;49.326;8.430;2023-05-13T08:01:44;15.40;99.90
43673;DHT22;41723;49.326;8.430;2023-05-13T08:04:09;15.50;99.90
43673;DHT22;41723;49.326;8.430;2023-05-13T08:06:35;15.50;99.90
43673;DHT22;41723;49.326;8.430;2023-05-13T08:09:00;15.50;99.90
43673;DHT22;41723;49.326;8.430;2023-05-13T08:11:26;15.60;99.90
43673;DHT22;41723;49.326;8.430;2023-05-13T08:13:52;15.60;99.90
43673;DHT22;41723;49.326;8.430;2023-05-13T08:16:17;15.80;99.90
43673;DHT22;41723;49.326;8.430;2023-05-13T08:18:43;15.80;99.90
43673;DHT22;41723;49.326;8.430;2023-05-13T08:21:08;15.90;99.90
43673;DHT22;41723;49.326;8.430;2023-05-13T08:26:19;16.00;99.90
43673;DHT22;41723;49.326;8.430;2023-05-13T08:28:45;16.00;99.90
43673;DHT22;41723;49.326;8.430;2023-05-13T08:31:11;16.10;99.90
43673;DHT22;41723;49.326;8.430;2023-05-13T08:33:36;16.00;99.70
43673;DHT22;41723;49.326;8.430;2023-05-13T08:36:02;16.10;99.90
43673;DHT22;41723;49.326;8.430;2023-05-13T08:38:28;16.20;99.90
43673;DHT22;41723;49.326;8.430;2023-05-13T08:40:53;16.20;99.70
43673;DHT22;41723;49.326;8.430;2023-05-13T08:43:19;16.10;99.80
43673;DHT22;41723;49.326;8.430;2023-05-13T08:45:48;16.10;99.90
43673;DHT22;41723;49.326;8.430;2023-05-13T08:48:15;16.10;99.90
43673;DHT22;41723;49.326;8.430;2023-05-13T08:50:41;16.20;99.90
43673;DHT22;41723;49.326;8.430;2023-05-13T08:53:07;16.20;99.90
43673;DHT22;41723;49.326;8.430;2023-05-13T08:55:34;16.20;99.90
43673;DHT22;41723;49.326;8.430;2023-05-13T08:57:59;16.30;99.90
43673;DHT22;41723;49.326;8.430;2023-05-13T09:00:25;16.30;99.90
43673;DHT22;41723;49.326;8.430;2023-05-13T09:02:51;16.10;99.90
43673;DHT22;41723;49.326;8.430;2023-05-13T09:05:16;16.40;99.90
43673;DHT22;41723;49.326;8.430;2023-05-13T09:07:42;16.60;99.90
43673;DHT22;41723;49.326;8.430;2023-05-13T09:10:08;16.70;99.90
43673;DHT22;41723;49.326;8.430;2023-05-13T09:15:16;16.80;99.80
43673;DHT22;41723;49.326;8.430;2023-05-13T09:17:42;16.60;99.00
43673;DHT22;41723;49.326;8.430;2023-05-13T09:20:08;16.80;99.90
43673;DHT22;41723;49.326;8.430;2023-05-13T09:22:35;16.80;99.60
43673;DHT22;41723;49.326;8.430;2023-05-13T09:25:04;16.80;99.90
43673;DHT22;41723;49.326;8.430;2023-05-13T09:27:36;16.90;99.90
43673;DHT22;41723;49.326;8.430;2023-05-13T09:30:02;16.80;99.40
43673;DHT22;41723;49.326;8.430;2023-05-13T09:32:28;16.80;99.30
43673;DHT22;41723;49.326;8.430;2023-05-13T09:34:54;17.00;99.90
43673;DHT22;41723;49.326;8.430;2023-05-13T09:37:22;17.10;99.90
43673;DHT22;41723;49.326;8.430;2023-05-13T09:39:47;17.10;99.50
43673;DHT22;41723;49.326;8.430;2023-05-13T09:42:16;17.20;99.60
43673;DHT22;41723;49.326;8.430;2023-05-13T09:44:43;17.10;98.90
43673;DHT22;41723;49.326;8.430;2023-05-13T09:47:15;17.10;99.10
43673;DHT22;41723;49.326;8.430;2023-05-13T09:49:42;17.00;99.30
43673;DHT22;41723;49.326;8.430;2023-05-13T09:52:08;17.10;99.90
43673;DHT22;41723;49.326;8.430;2023-05-13T09:54:35;17.10;98.70
43673;DHT22;41723;49.326;8.430;2023-05-13T09:57:04;17.10;99.00
43673;DHT22;41723;49.326;8.430;2023-05-13T09:59:30;17.10;99.30
43673;DHT22;41723;49.326;8.430;2023-05-13T10:01:56;17.20;99.90
43673;DHT22;41723;49.326;8.430;2023-05-13T10:04:24;17.30;99.70
43673;DHT22;41723;49.326;8.430;2023-05-13T10:06:50;17.40;99.10
43673;DHT22;41723;49.326;8.430;2023-05-13T10:09:16;17.50;99.90
43673;DHT22;41723;49.326;8.430;2023-05-13T10:11:42;17.50;99.10
43673;DHT22;41723;49.326;8.430;2023-05-13T10:14:09;17.70;99.70
43673;DHT22;41723;49.326;8.430;2023-05-13T10:16:35;17.70;99.30
43673;DHT22;41723;49.326;8.430;2023-05-13T10:19:02;17.80;98.00
43673;DHT22;41723;49.326;8.430;2023-05-13T10:21:29;17.80;98.10
43673;DHT22;41723;49.326;8.430;2023-05-13T10:23:55;17.90;98.60
43673;DHT22;41723;49.326;8.430;2023-05-13T10:26:22;17.90;97.00
43673;DHT22;41723;49.326;8.430;2023-05-13T10:28:48;18.10;98.20
43673;DHT22;41723;49.326;8.430;2023-05-13T10:31:15;18.10;97.30
43673;DHT22;41723;49.326;8.430;2023-05-13T10:33:41;18.00;98.10
43673;DHT22;41723;49.326;8.430;2023-05-13T10:38:46;18.20;97.30
43673;DHT22;41723;49.326;8.430;2023-05-13T10:41:22;18.30;97.40
43673;DHT22;41723;49.326;8.430;2023-05-13T10:43:55;18.40;97.60
43673;DHT22;41723;49.326;8.430;2023-05-13T10:46:21;18.30;96.40
43673;DHT22;41723;49.326;8.430;2023-05-13T10:48:48;18.40;97.30
43673;DHT22;41723;49.326;8.430;2023-05-13T10:51:15;18.60;97.50
43673;DHT22;41723;49.326;8.430;2023-05-13T10:53:51;18.60;96.50
43673;DHT22;41723;49.326;8.430;2023-05-13T10:56:21;18.60;97.10
43673;DHT22;41723;49.326;8.430;2023-05-13T10:59:08;18.70;96.30
43673;DHT22;41723;49.326;8.430;2023-05-13T11:01:34;18.80;96.60
43673;DHT22;41723;49.326;8.430;2023-05-13T11:04:00;18.90;96.60
43673;DHT22;41723;49.326;8.430;2023-05-13T11:08:58;19.10;96.90
43673;DHT22;41723;49.326;8.430;2023-05-13T11:11:30;18.90;95.30
43673;DHT22;41723;49.326;8.430;2023-05-13T11:16:29;19.10;96.30
43673;DHT22;41723;49.326;8.430;2023-05-13T11:18:54;19.20;96.50
43673;DHT22;41723;49.326;8.430;2023-05-13T11:21:30;19.40;96.20
43673;DHT22;41723;49.326;8.430;2023-05-13T11:23:57;19.50;97.00
43673;DHT22;41723;49.326;8.430;2023-05-13T11:26:23;19.50;95.70
43673;DHT22;41723;49.326;8.430;2023-05-13T11:31:24;19.60;94.60
43673;DHT22;41723;49.326;8.430;2023-05-13T11:36:37;19.50;96.10
43673;DHT22;41723;49.326;8.430;2023-05-13T11:39:04;19.80;96.20
43673;DHT22;41723;49.326;8.430;2023-05-13T11:41:31;19.80;95.60
43673;DHT22;41723;49.326;8.430;2023-05-13T11:43:57;19.90;94.90
43673;DHT22;41723;49.326;8.430;2023-05-13T11:46:23;19.60;95.60
43673;DHT22;41723;49.326;8.430;2023-05-13T11:48:50;19.80;94.90
43673;DHT22;41723;49.326;8.430;2023-05-13T11:51:18;20.00;95.50
43673;DHT22;41723;49.326;8.430;2023-05-13T11:53:44;20.30;95.40
43673;DHT22;41723;49.326;8.430;2023-05-13T11:56:10;20.00;94.60
43673;DHT22;41723;49.326;8.430;2023-05-13T11:58:37;20.00;95.20
43673;DHT22;41723;49.326;8.430;2023-05-13T12:01:02;19.90;95.20
43673;DHT22;41723;49.326;8.430;2023-05-13T12:03:28;19.80;96.30
43673;DHT22;41723;49.326;8.430;2023-05-13T12:06:00;19.60;96.00
43673;DHT22;41723;49.326;8.430;2023-05-13T12:08:26;19.30;95.40
43673;DHT22;41723;49.326;8.430;2023-05-13T12:10:51;19.00;96.40
43673;DHT22;41723;49.326;8.430;2023-05-13T12:13:17;19.00;96.20
43673;DHT22;41723;49.326;8.430;2023-05-13T12:15:43;18.90;96.60
43673;DHT22;41723;49.326;8.430;2023-05-13T12:18:09;18.90;97.10
43673;DHT22;41723;49.326;8.430;2023-05-13T12:20:34;18.90;96.80
43673;DHT22;41723;49.326;8.430;2023-05-13T12:23:00;18.80;96.90
43673;DHT22;41723;49.326;8.430;2023-05-13T12:25:36;19.40;96.50
43673;DHT22;41723;49.326;8.430;2023-05-13T12:28:13;19.70;96.00
43673;DHT22;41723;49.326;8.430;2023-05-13T12:30:41;20.00;95.30
43673;DHT22;41723;49.326;8.430;2023-05-13T12:33:12;19.80;94.80
43673;DHT22;41723;49.326;8.430;2023-05-13T12:35:37;19.80;95.40
43673;DHT22;41723;49.326;8.430;2023-05-13T12:38:03;19.80;95.60
43673;DHT22;41723;49.326;8.430;2023-05-13T12:40:30;20.00;94.90
43673;DHT22;41723;49.326;8.430;2023-05-13T12:42:56;20.00;95.20
43673;DHT22;41723;49.326;8.430;2023-05-13T12:45:22;19.80;94.80
43673;DHT22;41723;49.326;8.430;2023-05-13T12:47:50;19.40;95.00
43673;DHT22;41723;49.326;8.430;2023-05-13T12:50:16;19.30;96.40
43673;DHT22;41723;49.326;8.430;2023-05-13T12:52:42;19.30;96.50
43673;DHT22;41723;49.326;8.430;2023-05-13T12:55:08;19.20;96.70
43673;DHT22;41723;49.326;8.430;2023-05-13T12:57:33;18.90;98.50
43673;DHT22;41723;49.326;8.430;2023-05-13T12:59:59;18.70;99.90
43673;DHT22;41723;49.326;8.430;2023-05-13T13:02:25;18.50;99.90
43673;DHT22;41723;49.326;8.430;2023-05-13T13:04:51;18.50;99.90
43673;DHT22;41723;49.326;8.430;2023-05-13T13:07:16;18.30;99.90
43673;DHT22;41723;49.326;8.430;2023-05-13T13:09:42;18.10;99.90
43673;DHT22;41723;49.326;8.430;2023-05-13T13:12:07;17.90;99.90
43673;DHT22;41723;49.326;8.430;2023-05-13T13:14:33;18.00;99.90
43673;DHT22;41723;49.326;8.430;2023-05-13T13:16:58;18.10;99.90
43673;DHT22;41723;49.326;8.430;2023-05-13T13:19:24;18.10;99.30
43673;DHT22;41723;49.326;8.430;2023-05-13T13:21:50;18.20;99.90
43673;DHT22;41723;49.326;8.430;2023-05-13T13:24:15;18.20;98.50
43673;DHT22;41723;49.326;8.430;2023-05-13T13:26:41;18.20;97.40
43673;DHT22;41723;49.326;8.430;2023-05-13T13:29:06;18.20;97.90
43673;DHT22;41723;49.326;8.430;2023-05-13T13:31:32;18.40;97.50
43673;DHT22;41723;49.326;8.430;2023-05-13T13:33:58;18.70;96.50
43673;DHT22;41723;49.326;8.430;2023-05-13T13:36:28;18.70;97.40
43673;DHT22;41723;49.326;8.430;2023-05-13T13:38:54;18.70;97.60
43673;DHT22;41723;49.326;8.430;2023-05-13T13:41:20;18.80;97.10
43673;DHT22;41723;49.326;8.430;2023-05-13T13:43:52;18.80;97.30
43673;DHT22;41723;49.326;8.430;2023-05-13T13:46:18;18.90;97.60
43673;DHT22;41723;49.326;8.430;2023-05-13T13:48:44;19.10;97.20
43673;DHT22;41723;49.326;8.430;2023-05-13T13:51:09;19.50;96.60
43673;DHT22;41723;49.326;8.430;2023-05-13T13:53:35;19.60;95.50
43673;DHT22;41723;49.326;8.430;2023-05-13T13:56:00;19.40;94.80
43673;DHT22;41723;49.326;8.430;2023-05-13T13:58:26;19.30;95.20
43673;DHT22;41723;49.326;8.430;2023-05-13T14:00:51;19.30;95.30
43673;DHT22;41723;49.326;8.430;2023-05-13T14:03:17;19.30;96.10
43673;DHT22;41723;49.326;8.430;2023-05-13T14:05:43;19.30;95.70
43673;DHT22;41723;49.326;8.430;2023-05-13T14:08:08;19.20;95.80
43673;DHT22;41723;49.326;8.430;2023-05-13T14:10:34;19.20;96.40
43673;DHT22;41723;49.326;8.430;2023-05-13T14:12:59;19.20;97.10
43673;DHT22;41723;49.326;8.430;2023-05-13T14:15:25;19.20;96.90
43673;DHT22;41723;49.326;8.430;2023-05-13T14:17:53;19.20;96.50
43673;DHT22;41723;49.326;8.430;2023-05-13T14:20:19;19.20;96.60
43673;DHT22;41723;49.326;8.430;2023-05-13T14:22:46;19.20;97.00
43673;DHT22;41723;49.326;8.430;2023-05-13T14:25:12;19.20;96.70
43673;DHT22;41723;49.326;8.430;2023-05-13T14:27:38;19.20;96.60
43673;DHT22;41723;49.326;8.430;2023-05-13T14:30:04;19.10;96.10
43673;DHT22;41723;49.326;8.430;2023-05-13T14:32:30;19.10;96.90
43673;DHT22;41723;49.326;8.430;2023-05-13T14:34:56;19.10;97.00
43673;DHT22;41723;49.326;8.430;2023-05-13T14:37:22;19.00;97.00
43673;DHT22;41723;49.326;8.430;2023-05-13T14:39:47;19.00;97.20
43673;DHT22;41723;49.326;8.430;2023-05-13T14:42:13;19.00;97.10
43673;DHT22;41723;49.326;8.430;2023-05-13T14:44:39;18.90;97.50
43673;DHT22;41723;49.326;8.430;2023-05-13T14:47:06;18.90;97.30
43673;DHT22;41723;49.326;8.430;2023-05-13T14:49:31;18.90;97.40
43673;DHT22;41723;49.326;8.430;2023-05-13T14:51:57;18.90;97.10
43673;DHT22;41723;49.326;8.430;2023-05-13T14:54:22;19.00;96.90
43673;DHT22;41723;49.326;8.430;2023-05-13T14:56:49;19.00;97.00
43673;DHT22;41723;49.326;8.430;2023-05-13T14:59:15;19.00;97.20
43673;DHT22;41723;49.326;8.430;2023-05-13T15:01:40;19.10;97.00
43673;DHT22;41723;49.326;8.430;2023-05-13T15:04:06;19.20;97.20
43673;DHT22;41723;49.326;8.430;2023-05-13T15:06:32;19.40;96.70
43673;DHT22;41723;49.326;8.430;2023-05-13T15:08:58;19.40;96.50
43673;DHT22;41723;49.326;8.430;2023-05-13T15:11:25;19.50;96.10
43673;DHT22;41723;49.326;8.430;2023-05-13T15:13:51;19.50;96.50
43673;DHT22;41723;49.326;8.430;2023-05-13T15:16:17;19.10;96.20
43673;DHT22;41723;49.326;8.430;2023-05-13T15:18:42;19.10;97.20
43673;DHT22;41723;49.326;8.430;2023-05-13T15:21:08;19.10;97.10
43673;DHT22;41723;49.326;8.430;2023-05-13T15:23:33;19.00;96.50
43673;DHT22;41723;49.326;8.430;2023-05-13T15:25:59;19.10;96.00
43673;DHT22;41723;49.326;8.430;2023-05-13T15:28:25;19.10;96.50
43673;DHT22;41723;49.326;8.430;2023-05-13T15:30:50;19.00;96.60
43673;DHT22;41723;49.326;8.430;2023-05-13T15:33:16;19.00;97.00
43673;DHT22;41723;49.326;8.430;2023-05-13T15:35:41;19.00;97.00
43673;DHT22;41723;49.326;8.430;2023-05-13T15:38:08;19.00;96.40
43673;DHT22;41723;49.326;8.430;2023-05-13T15:40:36;18.80;97.10
43673;DHT22;41723;49.326;8.430;2023-05-13T15:43:01;18.80;97.00
43673;DHT22;41723;49.326;8.430;2023-05-13T15:45:27;18.80;96.90
43673;DHT22;41723;49.326;8.430;2023-05-13T15:47:53;18.80;97.00
43673;DHT22;41723;49.326;8.430;2023-05-13T15:50:18;18.80;97.00